PWSweather.com
Personal Weather Stations
Station Observations
CW5171
Mountain Shadows, Colorado Springs, CO 80919

Mountain ShadowsColorado Springs, CO 80919

Lat: 38.928, Lon: -104.868

Elevation: 6650

Station Type: LaCrosse WS-2308

High Low Average
Temperature 51.9°F11.1°C 35.2°F1.8°C 42.6°F5.9°C
Dew Point 21.8°F-5.7°C -3.3°F-19.6°C 12.1°F-11.1°C
Winds 40.1 mph 64.5 kmh 3.6 mph 5.8 kmh 20.0 mph WSW32.2 kmh WSW
Wind Gusts 61.3 mph98.7 kmh 11.4 mph18.3 kmh 36.0 mph57.9 kmh
Humidity 54% 15% 30%
Pressure 29.69 in1005.4 mb 29.28 in991.5 mb -
Precipitation 0.00 in0.0 mm - -
Hour Temp Dew Point Humidity Winds Wind Gusts Pressure Precip Precip Rate Daily Precip Total
12:03 AM 48.8°F9.3°C 23.0°F-5.0°C 36% 29.3 mph NW47.2 kmh NW 60.6 mph97.5 kmh 29.38 in994.9 mb 0.00 in0.0 mm 0.00 in/hr0.0 mm/hr 0.00 in0.0 mm
12:13 AM 48.7°F9.3°C 22.9°F-5.1°C 36% 22.3 mph NW35.9 kmh NW 52.6 mph84.7 kmh 29.39 in995.3 mb 0.00 in0.0 mm 0.00 in/hr0.0 mm/hr 0.00 in0.0 mm
12:23 AM 48.3°F9.1°C 22.5°F-5.3°C 36% 22.2 mph WNW35.7 kmh WNW 35.6 mph57.3 kmh 29.39 in995.3 mb 0.00 in0.0 mm 0.00 in/hr0.0 mm/hr 0.00 in0.0 mm
12:33 AM 48.1°F8.9°C 22.3°F-5.4°C 36% 14.0 mph SW22.5 kmh SW 35.3 mph56.8 kmh 29.38 in994.9 mb 0.00 in0.0 mm 0.00 in/hr0.0 mm/hr 0.00 in0.0 mm
12:43 AM 48.2°F9.0°C 21.8°F-5.7°C 35% 13.9 mph WNW22.4 kmh WNW 28.0 mph45.1 kmh 29.38 in994.9 mb 0.00 in0.0 mm 0.00 in/hr0.0 mm/hr 0.00 in0.0 mm
12:53 AM 48.4°F9.1°C 21.9°F-5.6°C 35% 18.2 mph WNW29.3 kmh WNW 41.4 mph66.6 kmh 29.38 in994.9 mb 0.00 in0.0 mm 0.00 in/hr0.0 mm/hr 0.00 in0.0 mm
01:03 AM 48.2°F9.0°C 21.1°F-6.1°C 34% 16.8 mph W27.0 kmh W 38.3 mph61.6 kmh 29.37 in994.6 mb 0.00 in0.0 mm 0.00 in/hr0.0 mm/hr 0.00 in0.0 mm
01:13 AM 47.9°F8.8°C 21.5°F-5.8°C 35% 21.8 mph WNW35.1 kmh WNW 38.3 mph61.6 kmh 29.37 in994.6 mb 0.00 in0.0 mm 0.00 in/hr0.0 mm/hr 0.00 in0.0 mm
01:23 AM 47.5°F8.6°C 21.8°F-5.7°C 36% 21.6 mph WNW34.8 kmh WNW 42.7 mph68.7 kmh 29.38 in994.9 mb 0.00 in0.0 mm 0.00 in/hr0.0 mm/hr 0.00 in0.0 mm
01:33 AM 47.4°F8.6°C 21.7°F-5.7°C 36% 27.9 mph NW44.9 kmh NW 36.9 mph59.4 kmh 29.37 in994.6 mb 0.00 in0.0 mm 0.00 in/hr0.0 mm/hr 0.00 in0.0 mm
01:43 AM 47.4°F8.6°C 21.7°F-5.7°C 36% 26.5 mph WNW42.6 kmh WNW 52.6 mph84.7 kmh 29.36 in994.2 mb 0.00 in0.0 mm 0.00 in/hr0.0 mm/hr 0.00 in0.0 mm
01:54 AM 47.1°F8.4°C 20.8°F-6.2°C 35% 18.1 mph WNW29.1 kmh WNW 39.1 mph62.9 kmh 29.35 in993.9 mb 0.00 in0.0 mm 0.00 in/hr0.0 mm/hr 0.00 in0.0 mm
02:03 AM 47.0°F8.3°C 20.7°F-6.3°C 35% 13.4 mph WNW21.6 kmh WNW 37.4 mph60.2 kmh 29.36 in994.2 mb 0.00 in0.0 mm 0.00 in/hr0.0 mm/hr 0.00 in0.0 mm
02:14 AM 46.9°F8.3°C 20.6°F-6.3°C 35% 11.5 mph W18.5 kmh W 31.8 mph51.2 kmh 29.34 in993.6 mb 0.00 in0.0 mm 0.00 in/hr0.0 mm/hr 0.00 in0.0 mm
02:24 AM 46.8°F8.2°C 20.5°F-6.4°C 35% 12.5 mph WNW20.1 kmh WNW 30.4 mph48.9 kmh 29.34 in993.6 mb 0.00 in0.0 mm 0.00 in/hr0.0 mm/hr 0.00 in0.0 mm
02:34 AM 46.7°F8.2°C 19.7°F-6.8°C 34% 14.8 mph WNW23.8 kmh WNW 37.4 mph60.2 kmh 29.33 in993.2 mb 0.00 in0.0 mm 0.00 in/hr0.0 mm/hr 0.00 in0.0 mm
02:44 AM 46.6°F8.1°C 19.0°F-7.2°C 33% 25.3 mph NW40.7 kmh NW 42.5 mph68.4 kmh 29.32 in992.9 mb 0.00 in0.0 mm 0.00 in/hr0.0 mm/hr 0.00 in0.0 mm
02:54 AM 46.7°F8.2°C 19.1°F-7.2°C 33% 21.1 mph NW34.0 kmh NW 41.8 mph67.3 kmh 29.31 in992.6 mb 0.00 in0.0 mm 0.00 in/hr0.0 mm/hr 0.00 in0.0 mm
03:04 AM 46.6°F8.1°C 17.6°F-8.0°C 31% 16.6 mph NW26.7 kmh NW 37.4 mph60.2 kmh 29.32 in992.9 mb 0.00 in0.0 mm 0.00 in/hr0.0 mm/hr 0.00 in0.0 mm
03:14 AM 46.4°F8.0°C 17.5°F-8.1°C 31% 7.1 mph ENE11.4 kmh ENE 23.7 mph38.1 kmh 29.32 in992.9 mb 0.00 in0.0 mm 0.00 in/hr0.0 mm/hr 0.00 in0.0 mm
03:24 AM 45.2°F7.3°C 17.8°F-7.9°C 33% 11.4 mph NE18.3 kmh NE 18.1 mph29.1 kmh 29.31 in992.6 mb 0.00 in0.0 mm 0.00 in/hr0.0 mm/hr 0.00 in0.0 mm
03:35 AM 44.5°F6.9°C 16.5°F-8.6°C 32% 6.3 mph W10.1 kmh W 18.8 mph30.3 kmh 29.31 in992.6 mb 0.00 in0.0 mm 0.00 in/hr0.0 mm/hr 0.00 in0.0 mm
03:44 AM 44.5°F6.9°C 15.8°F-9.0°C 31% 7.7 mph N12.4 kmh N 14.5 mph23.3 kmh 29.32 in992.9 mb 0.00 in0.0 mm 0.00 in/hr0.0 mm/hr 0.00 in0.0 mm
03:55 AM 44.0°F6.7°C 16.7°F-8.5°C 33% 5.2 mph N8.4 kmh N 15.2 mph24.5 kmh 29.31 in992.6 mb 0.00 in0.0 mm 0.00 in/hr0.0 mm/hr 0.00 in0.0 mm
04:05 AM 42.9°F6.1°C 16.4°F-8.7°C 34% 5.9 mph N9.5 kmh N 14.5 mph23.3 kmh 29.31 in992.6 mb 0.00 in0.0 mm 0.00 in/hr0.0 mm/hr 0.00 in0.0 mm
04:15 AM 42.5°F5.8°C 16.0°F-8.9°C 34% 4.6 mph N7.4 kmh N 13.0 mph20.9 kmh 29.30 in992.2 mb 0.00 in0.0 mm 0.00 in/hr0.0 mm/hr 0.00 in0.0 mm
04:25 AM 42.5°F5.8°C 16.0°F-8.9°C 34% 21.9 mph NW35.2 kmh NW 33.8 mph54.4 kmh 29.30 in992.2 mb 0.00 in0.0 mm 0.00 in/hr0.0 mm/hr 0.00 in0.0 mm
04:35 AM 42.5°F5.8°C 17.3°F-8.2°C 36% 30.2 mph NW48.6 kmh NW 46.1 mph74.2 kmh 29.29 in991.9 mb 0.00 in0.0 mm 0.00 in/hr0.0 mm/hr 0.00 in0.0 mm
04:45 AM 42.1°F5.6°C 17.0°F-8.3°C 36% 38.8 mph NW62.4 kmh NW 51.4 mph82.7 kmh 29.29 in991.9 mb 0.00 in0.0 mm 0.00 in/hr0.0 mm/hr 0.00 in0.0 mm
04:55 AM 41.9°F5.5°C 16.8°F-8.4°C 36% 33.4 mph NW53.8 kmh NW 57.7 mph92.9 kmh 29.28 in991.5 mb 0.00 in0.0 mm 0.00 in/hr0.0 mm/hr 0.00 in0.0 mm
05:05 AM 41.7°F5.4°C 16.6°F-8.6°C 36% 35.4 mph NW57.0 kmh NW 51.7 mph83.2 kmh 29.28 in991.5 mb 0.00 in0.0 mm 0.00 in/hr0.0 mm/hr 0.00 in0.0 mm
05:15 AM 41.3°F5.2°C 16.9°F-8.4°C 37% 33.1 mph NW53.3 kmh NW 53.2 mph85.6 kmh 29.29 in991.9 mb 0.00 in0.0 mm 0.00 in/hr0.0 mm/hr 0.00 in0.0 mm
05:25 AM 40.7°F4.8°C 16.4°F-8.7°C 37% 40.1 mph NW64.5 kmh NW 56.1 mph90.3 kmh 29.30 in992.2 mb 0.00 in0.0 mm 0.00 in/hr0.0 mm/hr 0.00 in0.0 mm
05:35 AM 40.3°F4.6°C 16.6°F-8.6°C 38% 32.0 mph NW51.5 kmh NW 57.9 mph93.2 kmh 29.31 in992.6 mb 0.00 in0.0 mm 0.00 in/hr0.0 mm/hr 0.00 in0.0 mm
05:45 AM 39.9°F4.4°C 16.2°F-8.8°C 38% 25.0 mph NW40.2 kmh NW 43.6 mph70.2 kmh 29.31 in992.6 mb 0.00 in0.0 mm 0.00 in/hr0.0 mm/hr 0.00 in0.0 mm
05:55 AM 39.9°F4.4°C 16.2°F-8.8°C 38% 18.0 mph NW29.0 kmh NW 43.2 mph69.5 kmh 29.33 in993.2 mb 0.00 in0.0 mm 0.00 in/hr0.0 mm/hr 0.00 in0.0 mm
06:05 AM 39.9°F4.4°C 16.8°F-8.4°C 39% 24.7 mph NW39.8 kmh NW 33.6 mph54.1 kmh 29.34 in993.6 mb 0.00 in0.0 mm 0.00 in/hr0.0 mm/hr 0.00 in0.0 mm
06:15 AM 39.7°F4.3°C 17.8°F-7.9°C 41% 32.6 mph NW52.5 kmh NW 45.9 mph73.9 kmh 29.34 in993.6 mb 0.00 in0.0 mm 0.00 in/hr0.0 mm/hr 0.00 in0.0 mm
06:26 AM 39.0°F3.9°C 18.8°F-7.3°C 44% 23.1 mph NW37.2 kmh NW 37.8 mph60.8 kmh 29.36 in994.2 mb 0.00 in0.0 mm 0.00 in/hr0.0 mm/hr 0.00 in0.0 mm
06:36 AM 38.3°F3.5°C 20.7°F-6.3°C 49% 20.4 mph NW32.8 kmh NW 40.3 mph64.9 kmh 29.37 in994.6 mb 0.00 in0.0 mm 0.00 in/hr0.0 mm/hr 0.00 in0.0 mm
06:46 AM 38.1°F3.4°C 20.5°F-6.4°C 49% 20.4 mph NW32.8 kmh NW 42.7 mph68.7 kmh 29.38 in994.9 mb 0.00 in0.0 mm 0.00 in/hr0.0 mm/hr 0.00 in0.0 mm
06:56 AM 38.5°F3.6°C 19.9°F-6.7°C 47% 21.6 mph NNW34.8 kmh NNW 40.3 mph64.9 kmh 29.38 in994.9 mb 0.00 in0.0 mm 0.00 in/hr0.0 mm/hr 0.00 in0.0 mm
07:06 AM 38.7°F3.7°C 20.6°F-6.3°C 48% 13.3 mph N21.4 kmh N 37.8 mph60.8 kmh 29.41 in995.9 mb 0.00 in0.0 mm 0.00 in/hr0.0 mm/hr 0.00 in0.0 mm
07:16 AM 37.9°F3.3°C 20.8°F-6.2°C 50% 11.2 mph N18.0 kmh N 25.1 mph40.4 kmh 29.41 in995.9 mb 0.00 in0.0 mm 0.00 in/hr0.0 mm/hr 0.00 in0.0 mm
07:26 AM 36.9°F2.7°C 20.4°F-6.4°C 51% 7.3 mph NNE11.7 kmh NNE 17.2 mph27.7 kmh 29.41 in995.9 mb 0.00 in0.0 mm 0.00 in/hr0.0 mm/hr 0.00 in0.0 mm
07:36 AM 36.3°F2.4°C 20.3°F-6.5°C 52% 8.0 mph NNE12.9 kmh NNE 15.0 mph24.1 kmh 29.41 in995.9 mb 0.00 in0.0 mm 0.00 in/hr0.0 mm/hr 0.00 in0.0 mm
07:46 AM 35.8°F2.1°C 20.7°F-6.3°C 54% 6.9 mph NE11.1 kmh NE 14.8 mph23.8 kmh 29.41 in995.9 mb 0.00 in0.0 mm 0.00 in/hr0.0 mm/hr 0.00 in0.0 mm
07:56 AM 35.2°F1.8°C 19.7°F-6.8°C 53% 7.1 mph NNW11.4 kmh NNW 17.2 mph27.7 kmh 29.40 in995.6 mb 0.00 in0.0 mm 0.00 in/hr0.0 mm/hr 0.00 in0.0 mm
08:06 AM 36.3°F2.4°C 16.4°F-8.7°C 44% 31.4 mph NW50.5 kmh NW 39.1 mph62.9 kmh 29.40 in995.6 mb 0.00 in0.0 mm 0.00 in/hr0.0 mm/hr 0.00 in0.0 mm
08:16 AM 37.2°F2.9°C 13.8°F-10.1°C 38% 34.0 mph NW54.7 kmh NW 50.6 mph81.4 kmh 29.40 in995.6 mb 0.00 in0.0 mm 0.00 in/hr0.0 mm/hr 0.00 in0.0 mm
08:26 AM 37.4°F3.0°C 13.4°F-10.3°C 37% 36.9 mph NW59.4 kmh NW 50.8 mph81.8 kmh 29.41 in995.9 mb 0.00 in0.0 mm 0.00 in/hr0.0 mm/hr 0.00 in0.0 mm
08:37 AM 37.2°F2.9°C 12.0°F-11.1°C 35% 38.7 mph NW62.3 kmh NW 55.0 mph88.5 kmh 29.41 in995.9 mb 0.00 in0.0 mm 0.00 in/hr0.0 mm/hr 0.00 in0.0 mm
08:47 AM 37.0°F2.8°C 11.8°F-11.2°C 35% 39.8 mph NW64.1 kmh NW 56.1 mph90.3 kmh 29.41 in995.9 mb 0.00 in0.0 mm 0.00 in/hr0.0 mm/hr 0.00 in0.0 mm
08:57 AM 37.0°F2.8°C 11.2°F-11.6°C 34% 37.9 mph NW61.0 kmh NW 53.5 mph86.1 kmh 29.42 in996.3 mb 0.00 in0.0 mm 0.00 in/hr0.0 mm/hr 0.00 in0.0 mm
09:07 AM 36.9°F2.7°C 11.1°F-11.6°C 34% 34.3 mph NW55.2 kmh NW 54.1 mph87.1 kmh 29.44 in997.0 mb 0.00 in0.0 mm 0.00 in/hr0.0 mm/hr 0.00 in0.0 mm
09:17 AM 36.7°F2.6°C 10.9°F-11.7°C 34% 28.0 mph NW45.1 kmh NW 46.5 mph74.8 kmh 29.46 in997.6 mb 0.00 in0.0 mm 0.00 in/hr0.0 mm/hr 0.00 in0.0 mm
09:27 AM 36.7°F2.6°C 10.9°F-11.7°C 34% 21.5 mph NNW34.6 kmh NNW 38.7 mph62.3 kmh 29.48 in998.3 mb 0.00 in0.0 mm 0.00 in/hr0.0 mm/hr 0.00 in0.0 mm
09:37 AM 37.0°F2.8°C 10.5°F-11.9°C 33% 15.8 mph NNW25.4 kmh NNW 34.2 mph55.0 kmh 29.49 in998.6 mb 0.00 in0.0 mm 0.00 in/hr0.0 mm/hr 0.00 in0.0 mm
09:47 AM 37.2°F2.9°C 12.6°F-10.8°C 36% 15.3 mph NNE24.6 kmh NNE 26.8 mph43.1 kmh 29.49 in998.6 mb 0.00 in0.0 mm 0.00 in/hr0.0 mm/hr 0.00 in0.0 mm
09:57 AM 37.4°F3.0°C 12.8°F-10.7°C 36% 18.2 mph N29.3 kmh N 33.3 mph53.6 kmh 29.51 in999.3 mb 0.00 in0.0 mm 0.00 in/hr0.0 mm/hr 0.00 in0.0 mm
10:07 AM 37.6°F3.1°C 12.3°F-10.9°C 35% 19.4 mph N31.2 kmh N 34.2 mph55.0 kmh 29.51 in999.3 mb 0.00 in0.0 mm 0.00 in/hr0.0 mm/hr 0.00 in0.0 mm
10:17 AM 37.9°F3.3°C 12.6°F-10.8°C 35% 15.6 mph N25.1 kmh N 35.8 mph57.6 kmh 29.51 in999.3 mb 0.00 in0.0 mm 0.00 in/hr0.0 mm/hr 0.00 in0.0 mm
10:28 AM 38.5°F3.6°C 11.8°F-11.2°C 33% 17.9 mph NNW28.8 kmh NNW 40.3 mph64.9 kmh 29.52 in999.7 mb 0.00 in0.0 mm 0.00 in/hr0.0 mm/hr 0.00 in0.0 mm
10:38 AM 39.0°F3.9°C 11.6°F-11.3°C 32% 22.2 mph NNW35.7 kmh NNW 53.9 mph86.7 kmh 29.52 in999.7 mb 0.00 in0.0 mm 0.00 in/hr0.0 mm/hr 0.00 in0.0 mm
10:48 AM 39.7°F4.3°C 10.8°F-11.8°C 30% 21.3 mph NNW34.3 kmh NNW 42.7 mph68.7 kmh 29.54 in1000.3 mb 0.00 in0.0 mm 0.00 in/hr0.0 mm/hr 0.00 in0.0 mm
10:58 AM 39.9°F4.4°C 10.3°F-12.1°C 29% 18.4 mph NNW29.6 kmh NNW 44.1 mph71.0 kmh 29.55 in1000.7 mb 0.00 in0.0 mm 0.00 in/hr0.0 mm/hr 0.00 in0.0 mm
11:08 AM 39.7°F4.3°C 9.4°F-12.6°C 28% 26.3 mph NNW42.3 kmh NNW 47.9 mph77.1 kmh 29.55 in1000.7 mb 0.00 in0.0 mm 0.00 in/hr0.0 mm/hr 0.00 in0.0 mm
11:18 AM 39.9°F4.4°C 8.8°F-12.9°C 27% 29.9 mph NW48.1 kmh NW 47.9 mph77.1 kmh 29.56 in1001.0 mb 0.00 in0.0 mm 0.00 in/hr0.0 mm/hr 0.00 in0.0 mm
11:28 AM 40.6°F4.8°C 8.6°F-13.0°C 27% 23.5 mph NNW37.8 kmh NNW 44.1 mph71.0 kmh 29.57 in1001.4 mb 0.00 in0.0 mm 0.00 in/hr0.0 mm/hr 0.00 in0.0 mm
11:38 AM 40.6°F4.8°C 8.6°F-13.0°C 27% 19.6 mph NNW31.5 kmh NNW 41.8 mph67.3 kmh 29.57 in1001.4 mb 0.00 in0.0 mm 0.00 in/hr0.0 mm/hr 0.00 in0.0 mm
11:48 AM 40.8°F4.9°C 7.9°F-13.4°C 26% 11.0 mph NNE17.7 kmh NNE 32.7 mph52.6 kmh 29.57 in1001.4 mb 0.00 in0.0 mm 0.00 in/hr0.0 mm/hr 0.00 in0.0 mm
11:58 AM 42.6°F5.9°C 8.6°F-13.0°C 25% 31.7 mph NNW51.0 kmh NNW 46.1 mph74.2 kmh 29.58 in1001.7 mb 0.00 in0.0 mm 0.00 in/hr0.0 mm/hr 0.00 in0.0 mm
12:08 PM 42.2°F5.7°C 7.4°F-13.7°C 24% 27.4 mph NNW44.1 kmh NNW 40.3 mph64.9 kmh 29.57 in1001.4 mb 0.00 in0.0 mm 0.00 in/hr0.0 mm/hr 0.00 in0.0 mm
12:19 PM 42.0°F5.6°C 7.2°F-13.8°C 24% 23.2 mph NNW37.3 kmh NNW 42.5 mph68.4 kmh 29.57 in1001.4 mb 0.00 in0.0 mm 0.00 in/hr0.0 mm/hr 0.00 in0.0 mm
12:29 PM 42.5°F5.8°C 6.7°F-14.1°C 23% 18.1 mph N29.1 kmh N 38.9 mph62.6 kmh 29.58 in1001.7 mb 0.00 in0.0 mm 0.00 in/hr0.0 mm/hr 0.00 in0.0 mm
12:38 PM 42.7°F5.9°C 6.0°F-14.4°C 22% 27.1 mph NNW43.6 kmh NNW 46.3 mph74.5 kmh 29.57 in1001.4 mb 0.00 in0.0 mm 0.00 in/hr0.0 mm/hr 0.00 in0.0 mm
12:49 PM 42.5°F5.8°C 5.7°F-14.6°C 22% 25.3 mph N40.7 kmh N 38.0 mph61.2 kmh 29.58 in1001.7 mb 0.00 in0.0 mm 0.00 in/hr0.0 mm/hr 0.00 in0.0 mm
12:59 PM 42.7°F5.9°C 5.9°F-14.5°C 22% 19.1 mph NNW30.7 kmh NNW 32.0 mph51.5 kmh 29.58 in1001.7 mb 0.00 in0.0 mm 0.00 in/hr0.0 mm/hr 0.00 in0.0 mm
01:09 PM 42.4°F5.8°C 5.7°F-14.6°C 22% 14.1 mph NNW22.7 kmh NNW 34.4 mph55.4 kmh 29.59 in1002.0 mb 0.00 in0.0 mm 0.00 in/hr0.0 mm/hr 0.00 in0.0 mm
01:19 PM 42.9°F6.1°C 7.0°F-13.9°C 23% 9.1 mph N14.6 kmh N 23.5 mph37.8 kmh 29.60 in1002.4 mb 0.00 in0.0 mm 0.00 in/hr0.0 mm/hr 0.00 in0.0 mm
01:29 PM 44.0°F6.7°C 7.0°F-13.9°C 22% 11.3 mph NE18.2 kmh NE 20.4 mph32.8 kmh 29.60 in1002.4 mb 0.00 in0.0 mm 0.00 in/hr0.0 mm/hr 0.00 in0.0 mm
01:39 PM 45.4°F7.4°C 7.2°F-13.8°C 21% 10.8 mph NE17.4 kmh NE 29.5 mph47.5 kmh 29.61 in1002.7 mb 0.00 in0.0 mm 0.00 in/hr0.0 mm/hr 0.00 in0.0 mm
01:49 PM 46.7°F8.2°C 7.2°F-13.8°C 20% 10.2 mph N16.4 kmh N 16.3 mph26.2 kmh 29.61 in1002.7 mb 0.00 in0.0 mm 0.00 in/hr0.0 mm/hr 0.00 in0.0 mm
02:00 PM 47.5°F8.6°C 6.8°F-14.0°C 19% 12.6 mph N20.3 kmh N 22.4 mph36.0 kmh 29.62 in1003.0 mb 0.00 in0.0 mm 0.00 in/hr0.0 mm/hr 0.00 in0.0 mm
02:10 PM 47.5°F8.6°C 6.8°F-14.0°C 19% 10.4 mph NNE16.7 kmh NNE 25.5 mph41.0 kmh 29.62 in1003.0 mb 0.00 in0.0 mm 0.00 in/hr0.0 mm/hr 0.00 in0.0 mm
02:20 PM 47.9°F8.8°C 7.1°F-13.8°C 19% 7.2 mph NE11.6 kmh NE 20.4 mph32.8 kmh 29.62 in1003.0 mb 0.00 in0.0 mm 0.00 in/hr0.0 mm/hr 0.00 in0.0 mm
02:30 PM 49.6°F9.8°C 8.5°F-13.1°C 19% 4.9 mph NE7.9 kmh NE 22.8 mph36.7 kmh 29.62 in1003.0 mb 0.00 in0.0 mm 0.00 in/hr0.0 mm/hr 0.00 in0.0 mm
02:40 PM 50.9°F10.5°C 7.1°F-13.8°C 17% 14.3 mph SW23.0 kmh SW 24.8 mph39.9 kmh 29.62 in1003.0 mb 0.00 in0.0 mm 0.00 in/hr0.0 mm/hr 0.00 in0.0 mm
02:50 PM 50.2°F10.1°C 7.8°F-13.4°C 18% 4.1 mph NE6.6 kmh NE 18.8 mph30.3 kmh 29.63 in1003.4 mb 0.00 in0.0 mm 0.00 in/hr0.0 mm/hr 0.00 in0.0 mm
03:00 PM 50.4°F10.2°C 5.4°F-14.8°C 16% 3.6 mph N5.8 kmh N 12.3 mph19.8 kmh 29.63 in1003.4 mb 0.00 in0.0 mm 0.00 in/hr0.0 mm/hr 0.00 in0.0 mm
03:10 PM 50.7°F10.4°C 5.6°F-14.7°C 16% 5.2 mph S8.4 kmh S 11.4 mph18.3 kmh 29.63 in1003.4 mb 0.00 in0.0 mm 0.00 in/hr0.0 mm/hr 0.00 in0.0 mm
03:20 PM 51.9°F11.1°C 7.9°F-13.4°C 17% 5.8 mph NE9.3 kmh NE 13.0 mph20.9 kmh 29.63 in1003.4 mb 0.00 in0.0 mm 0.00 in/hr0.0 mm/hr 0.00 in0.0 mm
03:30 PM 50.8°F10.4°C 5.7°F-14.6°C 16% 21.2 mph NW34.1 kmh NW 33.6 mph54.1 kmh 29.64 in1003.7 mb 0.00 in0.0 mm 0.00 in/hr0.0 mm/hr 0.00 in0.0 mm
03:40 PM 47.5°F8.6°C 3.1°F-16.1°C 16% 21.4 mph NW34.4 kmh NW 61.3 mph98.7 kmh 29.65 in1004.1 mb 0.00 in0.0 mm 0.00 in/hr0.0 mm/hr 0.00 in0.0 mm
03:51 PM 45.9°F7.7°C 3.0°F-16.1°C 17% 8.5 mph NW13.7 kmh NW 35.6 mph57.3 kmh 29.66 in1004.4 mb 0.00 in0.0 mm 0.00 in/hr0.0 mm/hr 0.00 in0.0 mm
04:01 PM 46.3°F7.9°C 3.3°F-15.9°C 17% 10.1 mph 16.3 kmh 24.4 mph39.3 kmh 29.66 in1004.4 mb 0.00 in0.0 mm 0.00 in/hr0.0 mm/hr 0.00 in0.0 mm
04:11 PM 46.6°F8.1°C 2.3°F-16.5°C 16% 11.4 mph NW18.3 kmh NW 28.2 mph45.4 kmh 29.66 in1004.4 mb 0.00 in0.0 mm 0.00 in/hr0.0 mm/hr 0.00 in0.0 mm
04:21 PM 45.7°F7.6°C 1.6°F-16.9°C 16% 14.5 mph NNW23.3 kmh NNW 40.7 mph65.5 kmh 29.67 in1004.7 mb 0.00 in0.0 mm 0.00 in/hr0.0 mm/hr 0.00 in0.0 mm
04:31 PM 44.8°F7.1°C 0.8°F-17.3°C 16% 27.7 mph NW44.6 kmh NW 38.7 mph62.3 kmh 29.66 in1004.4 mb 0.00 in0.0 mm 0.00 in/hr0.0 mm/hr 0.00 in0.0 mm
04:41 PM 43.5°F6.4°C -0.2°F-17.9°C 16% 30.0 mph NW48.3 kmh NW 46.5 mph74.8 kmh 29.67 in1004.7 mb 0.00 in0.0 mm 0.00 in/hr0.0 mm/hr 0.00 in0.0 mm
04:51 PM 43.0°F6.1°C 0.7°F-17.4°C 17% 23.7 mph NW38.1 kmh NW 55.3 mph89.0 kmh 29.67 in1004.7 mb 0.00 in0.0 mm 0.00 in/hr0.0 mm/hr 0.00 in0.0 mm
05:01 PM 42.6°F5.9°C -1.0°F-18.3°C 16% 31.2 mph NW50.2 kmh NW 44.5 mph71.6 kmh 29.68 in1005.1 mb 0.00 in0.0 mm 0.00 in/hr0.0 mm/hr 0.00 in0.0 mm
05:11 PM 42.1°F5.6°C -2.7°F-19.3°C 15% 21.3 mph NW34.3 kmh NW 40.3 mph64.9 kmh 29.69 in1005.4 mb 0.00 in0.0 mm 0.00 in/hr0.0 mm/hr 0.00 in0.0 mm
05:21 PM 41.4°F5.2°C -3.3°F-19.6°C 15% 26.8 mph NW43.1 kmh NW 54.8 mph88.2 kmh 29.69 in1005.4 mb 0.00 in0.0 mm 0.00 in/hr0.0 mm/hr 0.00 in0.0 mm
05:31 PM 39.9°F4.4°C -3.1°F-19.5°C 16% 19.0 mph NW30.6 kmh NW 33.3 mph53.6 kmh 29.69 in1005.4 mb 0.00 in0.0 mm 0.00 in/hr0.0 mm/hr 0.00 in0.0 mm
05:42 PM 39.0°F3.9°C -2.6°F-19.2°C 17% 25.5 mph NW41.0 kmh NW 49.9 mph80.3 kmh 29.69 in1005.4 mb 0.00 in0.0 mm 0.00 in/hr0.0 mm/hr 0.00 in0.0 mm
05:52 PM 38.3°F3.5°C -2.0°F-18.9°C 18% 28.5 mph NW45.9 kmh NW 42.7 mph68.7 kmh 29.68 in1005.1 mb 0.00 in0.0 mm 0.00 in/hr0.0 mm/hr 0.00 in0.0 mm
06:02 PM 37.6°F3.1°C -1.4°F-18.6°C 19% 23.3 mph NW37.5 kmh NW 48.3 mph77.7 kmh 29.69 in1005.4 mb 0.00 in0.0 mm 0.00 in/hr0.0 mm/hr 0.00 in0.0 mm
06:12 PM 37.2°F2.9°C -1.8°F-18.8°C 19% 36.7 mph NW59.1 kmh NW 59.1 mph95.1 kmh 29.69 in1005.4 mb 0.00 in0.0 mm 0.00 in/hr0.0 mm/hr 0.00 in0.0 mm
06:22 PM 37.2°F2.9°C -1.8°F-18.8°C 19% 32.9 mph NW52.9 kmh NW 64.0 mph103.0 kmh 29.69 in1005.4 mb 0.00 in0.0 mm 0.00 in/hr0.0 mm/hr 0.00 in0.0 mm
06:32 PM 37.0°F2.8°C -1.9°F-18.8°C 19% 42.0 mph NW67.6 kmh NW 59.1 mph95.1 kmh 29.69 in1005.4 mb 0.00 in0.0 mm 0.00 in/hr0.0 mm/hr 0.00 in0.0 mm
06:42 PM 36.9°F2.7°C -2.0°F-18.9°C 19% 40.3 mph NW64.9 kmh NW 52.3 mph84.2 kmh 29.69 in1005.4 mb 0.00 in0.0 mm 0.00 in/hr0.0 mm/hr 0.00 in0.0 mm
06:52 PM 36.7°F2.6°C -1.1°F-18.4°C 20% 40.6 mph NW65.3 kmh NW 64.2 mph103.3 kmh 29.69 in1005.4 mb 0.00 in0.0 mm 0.00 in/hr0.0 mm/hr 0.00 in0.0 mm
07:02 PM 36.7°F2.6°C -2.2°F-19.0°C 19% 42.7 mph NW68.7 kmh NW 61.5 mph99.0 kmh 29.69 in1005.4 mb 0.00 in0.0 mm 0.00 in/hr0.0 mm/hr 0.00 in0.0 mm
07:12 PM 36.7°F2.6°C -2.2°F-19.0°C 19% 45.0 mph NW72.4 kmh NW 62.2 mph100.1 kmh 29.70 in1005.8 mb 0.00 in0.0 mm 0.00 in/hr0.0 mm/hr 0.00 in0.0 mm
07:22 PM 36.7°F2.6°C -2.2°F-19.0°C 19% 37.6 mph NW60.5 kmh NW 61.1 mph98.3 kmh 29.71 in1006.1 mb 0.00 in0.0 mm 0.00 in/hr0.0 mm/hr 0.00 in0.0 mm
07:32 PM 36.7°F2.6°C -2.2°F-19.0°C 19% 37.5 mph NW60.4 kmh NW 54.8 mph88.2 kmh 29.72 in1006.4 mb 0.00 in0.0 mm 0.00 in/hr0.0 mm/hr 0.00 in0.0 mm
07:43 PM 36.9°F2.7°C -2.0°F-18.9°C 19% 30.8 mph WNW49.6 kmh WNW 62.0 mph99.8 kmh 29.73 in1006.8 mb 0.00 in0.0 mm 0.00 in/hr0.0 mm/hr 0.00 in0.0 mm
07:53 PM 36.5°F2.5°C -2.3°F-19.1°C 19% 26.3 mph NW42.3 kmh NW 47.0 mph75.6 kmh 29.75 in1007.5 mb 0.00 in0.0 mm 0.00 in/hr0.0 mm/hr 0.00 in0.0 mm
08:03 PM 36.1°F2.3°C -1.6°F-18.7°C 20% 11.0 mph WNW17.7 kmh WNW 32.0 mph51.5 kmh 29.76 in1007.8 mb 0.00 in0.0 mm 0.00 in/hr0.0 mm/hr 0.00 in0.0 mm
08:13 PM 36.4°F2.4°C -2.4°F-19.1°C 19% 17.9 mph S28.8 kmh S 25.9 mph41.7 kmh 29.77 in1008.1 mb 0.00 in0.0 mm 0.00 in/hr0.0 mm/hr 0.00 in0.0 mm
08:23 PM 36.4°F2.4°C -2.4°F-19.1°C 19% 3.9 mph E6.3 kmh E 30.2 mph48.6 kmh 29.79 in1008.8 mb 0.00 in0.0 mm 0.00 in/hr0.0 mm/hr 0.00 in0.0 mm
08:33 PM 36.5°F2.5°C -2.3°F-19.1°C 19% 2.5 mph SSE4.0 kmh SSE 11.0 mph17.7 kmh 29.79 in1008.8 mb 0.00 in0.0 mm 0.00 in/hr0.0 mm/hr 0.00 in0.0 mm
08:43 PM 35.9°F2.2°C -1.7°F-18.7°C 20% 2.2 mph S3.5 kmh S 8.5 mph13.7 kmh 29.81 in1009.5 mb 0.00 in0.0 mm 0.00 in/hr0.0 mm/hr 0.00 in0.0 mm
08:53 PM 35.2°F1.8°C -2.3°F-19.1°C 20% 4.2 mph W6.8 kmh W 8.1 mph13.0 kmh 29.81 in1009.5 mb 0.00 in0.0 mm 0.00 in/hr0.0 mm/hr 0.00 in0.0 mm
09:03 PM 35.5°F1.9°C -1.1°F-18.4°C 21% 14.3 mph NW23.0 kmh NW 27.5 mph44.3 kmh 29.80 in1009.1 mb 0.00 in0.0 mm 0.00 in/hr0.0 mm/hr 0.00 in0.0 mm
09:13 PM 36.6°F2.6°C -1.2°F-18.4°C 20% 12.8 mph WNW20.6 kmh WNW 32.9 mph52.9 kmh 29.80 in1009.1 mb 0.00 in0.0 mm 0.00 in/hr0.0 mm/hr 0.00 in0.0 mm
09:23 PM 37.0°F2.8°C -0.9°F-18.3°C 20% 10.4 mph SW16.7 kmh SW 30.6 mph49.2 kmh 29.82 in1009.8 mb 0.00 in0.0 mm 0.00 in/hr0.0 mm/hr 0.00 in0.0 mm
09:33 PM 36.1°F2.3°C 9.7°F-12.4°C 33% 11.9 mph S19.2 kmh S 19.7 mph31.7 kmh 29.82 in1009.8 mb 0.00 in0.0 mm 0.00 in/hr0.0 mm/hr 0.00 in0.0 mm
09:43 PM 34.9°F1.6°C 10.5°F-11.9°C 36% 7.7 mph SSW12.4 kmh SSW 19.9 mph32.0 kmh 29.82 in1009.8 mb 0.00 in0.0 mm 0.00 in/hr0.0 mm/hr 0.00 in0.0 mm
09:53 PM 34.0°F1.1°C 12.1°F-11.1°C 40% 5.4 mph SSW8.7 kmh SSW 12.8 mph20.6 kmh 29.83 in1010.2 mb 0.00 in0.0 mm 0.00 in/hr0.0 mm/hr 0.00 in0.0 mm
10:03 PM 33.4°F0.8°C 13.2°F-10.4°C 43% 2.9 mph WSW4.7 kmh WSW 8.1 mph13.0 kmh 29.82 in1009.8 mb 0.00 in0.0 mm 0.00 in/hr0.0 mm/hr 0.00 in0.0 mm
10:13 PM 32.7°F0.4°C 12.6°F-10.8°C 43% Calm Calm 4.0 mph6.4 kmh 29.83 in1010.2 mb 0.00 in0.0 mm 0.00 in/hr0.0 mm/hr 0.00 in0.0 mm
10:24 PM 32.0°F0.0°C 11.9°F-11.2°C 43% Calm Calm 1.1 mph1.8 kmh 29.82 in1009.8 mb 0.00 in0.0 mm 0.00 in/hr0.0 mm/hr 0.00 in0.0 mm
10:34 PM 31.0°F-0.6°C 11.0°F-11.7°C 43% Calm Calm -- 29.82 in1009.8 mb 0.00 in0.0 mm 0.00 in/hr0.0 mm/hr 0.00 in0.0 mm
10:44 PM 30.7°F-0.7°C 12.2°F-11.0°C 46% 3.8 mph WSW6.1 kmh WSW 7.4 mph11.9 kmh 29.82 in1009.8 mb 0.00 in0.0 mm 0.00 in/hr0.0 mm/hr 0.00 in0.0 mm
10:54 PM 30.4°F-0.9°C 12.0°F-11.1°C 46% 2.7 mph WSW4.3 kmh WSW 3.8 mph6.1 kmh 29.81 in1009.5 mb 0.00 in0.0 mm 0.00 in/hr0.0 mm/hr 0.00 in0.0 mm
11:04 PM 29.7°F-1.3°C 11.3°F-11.5°C 46% Calm Calm 0.9 mph1.4 kmh 29.81 in1009.5 mb 0.00 in0.0 mm 0.00 in/hr0.0 mm/hr 0.00 in0.0 mm
11:14 PM 29.3°F-1.5°C 12.4°F-10.9°C 49% Calm Calm 3.6 mph5.8 kmh 29.80 in1009.1 mb 0.00 in0.0 mm 0.00 in/hr0.0 mm/hr 0.00 in0.0 mm
11:24 PM 28.7°F-1.8°C 11.4°F-11.4°C 48% Calm Calm 2.5 mph4.0 kmh 29.81 in1009.5 mb 0.00 in0.0 mm 0.00 in/hr0.0 mm/hr 0.00 in0.0 mm
11:34 PM 28.0°F-2.2°C 10.7°F-11.8°C 48% Calm Calm -- 29.81 in1009.5 mb 0.00 in0.0 mm 0.00 in/hr0.0 mm/hr 0.00 in0.0 mm
11:44 PM 27.4°F-2.6°C 10.6°F-11.9°C 49% Calm Calm -- 29.81 in1009.5 mb 0.00 in0.0 mm 0.00 in/hr0.0 mm/hr 0.00 in0.0 mm
11:54 PM 27.0°F-2.8°C 10.7°F-11.8°C 50% 3.1 mph WSW5.0 kmh WSW 4.0 mph6.4 kmh 29.80 in1009.1 mb 0.00 in0.0 mm 0.00 in/hr0.0 mm/hr 0.00 in0.0 mm